KMVN/MVN METAR and TAF weather

Enter ICAO airport designator
Station Type Date Time Source
KMVN METAR 2021/04/14 20:56 UTC NOAA

KMVN 142056Z AUTO VRB05KT 10SM CLR 17/02 A3008 RMK AO2 SLP188 T01670017 56016


Station Type Date Time Source
KMVN Decoded METAR 2021/04/14 20:56 UTC NOAA

Mount Vernon, Mount Vernon Airport, IL, United States (KMVN) 38-19N 088-52W
Apr 14, 2021 - 04:56 PM EDT / 2021.04.14 2056 UTC
Wind: Variable at 6 MPH (5 KT):0
Visibility: 10 mile(s):0
Sky conditions: clear
Temperature: 62.1 F (16.7 C)
Dew Point: 35.1 F (1.7 C)
Relative Humidity: 36%
Pressure (altimeter): 30.08 in. Hg (1018 hPa)
Pressure tendency: 0.05 inches (1.6 hPa) lower than three hours ago
ob: KMVN 142056Z AUTO VRB05KT 10SM CLR 17/02 A3008 RMK AO2 SLP188 T01670017 56016
cycle: 21

Station Type Date Time Source
KMVN TAF 2021/04/14 18:21 UTC NOAA

TAF KMVN 141720Z 1418/1518 03007KT P6SM SKC
FM142100 34006KT P6SM FEW045
FM150000 VRB03KT P6SM SCT250
FM151500 34006KT P6SM SCT060

Example: see airport list